| time (UTC) | temp C | wind direction | speed KPH | gust KPH | rain 1hr cm | rain 24hr cm | rain mn cm | humidity % | barometer mb |
| 20260506202028 | 15 | 151 | 4.8 | 24.1 | 0.00 | 1.02 | 1.02 | 90 | 1002.3 |
| 20260506201528 | 15 | 230 | 17.7 | 24.1 | 0.00 | 1.02 | 1.02 | 90 | 1002.4 |
| 20260506201027 | 15 | 210 | 11.3 | 29.0 | 0.00 | 1.02 | 1.02 | 90 | 1002.5 |
| 20260506200642 | 15 | 203 | 22.5 | 29.0 | 0.00 | 1.02 | 1.02 | 90 | 1002.6 |
| 20260506200029 | 15 | 183 | 9.7 | 27.4 | 0.00 | 1.02 | 1.02 | 91 | 1002.6 |
| 20260506195643 | 15 | 199 | 16.1 | 30.6 | 0.00 | 1.02 | 1.02 | 91 | 1002.6 |
| 20260506195258 | 15 | 210 | 16.1 | 30.6 | 0.00 | 1.02 | 1.02 | 90 | 1002.6 |
| 20260506194529 | 15 | 201 | 16.1 | 27.4 | 0.00 | 1.02 | 1.02 | 90 | 1002.7 |
| 20260506194142 | 15 | 209 | 9.7 | 27.4 | 0.00 | 1.02 | 1.02 | 90 | 1002.7 |
| 20260506193527 | 15 | 193 | 14.5 | 27.4 | 0.00 | 0.99 | 0.99 | 90 | 1002.7 |
| 20260506193144 | 15 | 249 | 24.1 | 32.2 | 0.00 | 0.99 | 0.99 | 90 | 1002.8 |
| 20260506192642 | 15 | 206 | 25.7 | 33.8 | 0.00 | 0.99 | 0.99 | 90 | 1002.8 |
| 20260506192027 | 15 | 197 | 17.7 | 32.2 | 0.00 | 0.99 | 0.99 | 90 | 1002.9 |
| 20260506191528 | 15 | 224 | 14.5 | 25.7 | 0.00 | 0.99 | 0.99 | 90 | 1002.8 |
| 20260506191027 | 15 | 203 | 14.5 | 29.0 | 0.10 | 0.99 | 0.99 | 91 | 1002.8 |
| 20260506190642 | 15 | 203 | 16.1 | 29.0 | 0.10 | 0.99 | 0.99 | 90 | 1002.9 |
| 20260506190143 | 15 | 194 | 17.7 | 30.6 | 0.20 | 0.99 | 0.99 | 91 | 1002.9 |
| 20260506185529 | 15 | 214 | 12.9 | 30.6 | 0.33 | 0.99 | 0.99 | 91 | 1002.9 |
| 20260506185142 | 15 | 201 | 16.1 | 27.4 | 0.43 | 0.97 | 0.97 | 91 | 1003.0 |
| 20260506184528 | 15 | 229 | 14.5 | 27.4 | 0.36 | 0.91 | 0.91 | 92 | 1003.1 |
| 20260506184143 | 15 | 167 | 17.7 | 25.7 | 0.28 | 0.91 | 0.91 | 92 | 1003.0 |
| 20260506183528 | 15 | 196 | 9.7 | 16.1 | 0.18 | 0.86 | 0.86 | 93 | 1003.0 |
| 20260506183143 | 15 | 226 | 8.0 | 11.3 | 0.18 | 0.86 | 0.86 | 93 | 1003.0 |
| 20260506182527 | 15 | 216 | 4.8 | 8.0 | 0.13 | 0.84 | 0.84 | 93 | 1003.0 |
| 20260506182026 | 15 | 258 | 3.2 | 9.7 | 0.13 | 0.84 | 0.84 | 93 | 1003.0 |
| 20260506181529 | 15 | 191 | 4.8 | 9.7 | 0.10 | 0.81 | 0.81 | 93 | 1003.0 |
| 20260506181027 | 15 | 209 | 6.4 | 9.7 | 0.10 | 0.81 | 0.81 | 93 | 1003.1 |
| 20260506180528 | 15 | 227 | 6.4 | 9.7 | 0.13 | 0.79 | 0.79 | 93 | 1003.2 |
| 20260506180029 | 15 | 243 | 6.4 | 11.3 | 0.18 | 0.79 | 0.79 | 93 | 1003.2 |
| 20260506175643 | 15 | 229 | 6.4 | 11.3 | 0.18 | 0.79 | 0.79 | 93 | 1003.3 |
| 20260506175027 | 15 | 227 | 8.0 | 11.3 | 0.18 | 0.76 | 0.76 | 93 | 1003.4 |
| 20260506174529 | 15 | 205 | 6.4 | 12.9 | 0.18 | 0.76 | 0.76 | 93 | 1003.3 |
| 20260506174142 | 15 | 196 | 8.0 | 12.9 | 0.30 | 0.71 | 0.71 | 93 | 1003.4 |
| 20260506173528 | 15 | 136 | 4.8 | 12.9 | 0.61 | 0.71 | 0.71 | 92 | 1003.5 |
| 20260506173029 | 15 | 197 | 4.8 | 12.9 | 0.99 | 0.66 | 0.66 | 92 | 1003.7 |
| 20260506172527 | 15 | 196 | 8.0 | 14.5 | 0.41 | 0.58 | 0.58 | 91 | 1003.7 |
| 20260506172027 | 15 | 195 | 3.2 | 14.5 | 0.64 | 0.56 | 0.56 | 92 | 1003.7 |
| 20260506171644 | 15 | 207 | 4.8 | 16.1 | 0.43 | 0.51 | 0.51 | 92 | 1003.9 |
| 20260506171142 | 15 | 187 | 4.8 | 16.1 | 0.30 | 0.48 | 0.48 | 91 | 1003.7 |
| 20260506170643 | 15 | 164 | 8.0 | 16.1 | 0.41 | 0.46 | 0.46 | 91 | 1003.7 |
| 20260506170143 | 15 | 103 | 1.6 | 17.7 | 0.56 | 0.41 | 0.41 | 91 | 1003.9 |
| 20260506165528 | 15 | 168 | 6.4 | 17.7 | 0.43 | 0.38 | 0.38 | 91 | 1004.1 |
| 20260506165027 | 15 | 185 | 3.2 | 11.3 | 0.28 | 0.33 | 0.33 | 91 | 1004.3 |
| 20260506164529 | 15 | 164 | 1.6 | 9.7 | 0.30 | 0.30 | 0.30 | 91 | 1004.3 |
| 20260506164027 | 15 | 202 | 3.2 | 11.3 | 0.23 | 0.28 | 0.28 | 90 | 1004.3 |
| 20260506163527 | 15 | 195 | 9.7 | 14.5 | 0.30 | 0.25 | 0.25 | 90 | 1004.3 |
| 20260506163030 | 15 | 201 | 12.9 | 14.5 | 0.30 | 0.23 | 0.23 | 90 | 1004.4 |
| 20260506162757 | 15 | 209 | 11.3 | 27.4 | 0.28 | 0.23 | 0.23 | 89 | 1004.3 |
| 20260506162028 | 16 | 203 | 9.7 | 27.4 | 0.23 | 0.20 | 0.20 | 89 | 1004.5 |
| 20260506161529 | 16 | 210 | 1.6 | 19.3 | 0.25 | 0.18 | 0.18 | 89 | 1004.4 |
| 20260506161026 | 16 | 214 | 9.7 | 12.9 | 0.15 | 0.15 | 0.15 | 89 | 1004.5 |
| 20260506160642 | 16 | 197 | 6.4 | 11.3 | 0.00 | 0.13 | 0.13 | 89 | 1004.6 |
| 20260506160028 | 16 | 217 | 6.4 | 9.7 | 0.00 | 0.13 | 0.13 | 89 | 1004.6 |
| 20260506155528 | 16 | 226 | 8.0 | 11.3 | 0.00 | 0.10 | 0.10 | 89 | 1004.5 |
| 20260506155142 | 16 | 226 | 6.4 | 11.3 | 0.00 | 0.10 | 0.10 | 88 | 1004.5 |
| 20260506154643 | 16 | 235 | 1.6 | 6.4 | 0.00 | 0.10 | 0.10 | 88 | 1004.3 |
| 20260506154143 | 16 | 201 | 3.2 | 11.3 | 0.00 | 0.10 | 0.10 | 89 | 1004.4 |
| 20260506153527 | 16 | 190 | 4.8 | 11.3 | 0.00 | 0.10 | 0.10 | 88 | 1004.4 |
| 20260506153029 | 16 | 178 | 1.6 | 6.4 | 0.00 | 0.08 | 0.08 | 88 | 1004.4 |
| 20260506152528 | 16 | 184 | 3.2 | 9.7 | 0.00 | 0.08 | 0.08 | 88 | 1004.5 |
| 20260506152028 | 16 | 199 | 4.8 | 16.1 | 0.00 | 0.08 | 0.08 | 87 | 1004.7 |
| 20260506151528 | 16 | 199 | 9.7 | 16.1 | 0.00 | 0.08 | 0.08 | 86 | 1004.8 |
| 20260506151027 | 16 | 271 | 4.8 | 14.5 | 0.00 | 0.05 | 0.05 | 86 | 1004.9 |
| 20260506150642 | 16 | 201 | 8.0 | 14.5 | 0.10 | 0.05 | 0.05 | 85 | 1004.9 |
| 20260506150143 | 16 | 207 | 8.0 | 22.5 | 0.13 | 0.05 | 0.05 | 85 | 1005.0 |
| 20260506145642 | 16 | 202 | 9.7 | 22.5 | 0.13 | 0.05 | 0.05 | 85 | 1005.1 |
| 20260506145142 | 16 | 199 | 6.4 | 22.5 | 0.00 | 0.03 | 0.03 | 84 | 1005.1 |
| 20260506144644 | 16 | 173 | 14.5 | 22.5 | 0.00 | 0.03 | 0.03 | 83 | 1005.2 |
| 20260506144028 | 17 | 212 | 16.1 | 25.7 | 0.00 | 0.03 | 0.03 | 82 | 1005.2 |
| 20260506143528 | 17 | 187 | 12.9 | 25.7 | 0.00 | 0.00 | 0.00 | 80 | 1005.3 |
| 20260506143028 | 17 | 218 | 3.2 | 29.0 | 0.00 | 0.00 | 0.00 | 79 | 1005.2 |
| 20260506142643 | 17 | 198 | 11.3 | 29.0 | 0.00 | 0.00 | 0.00 | 78 | 1005.2 |
| 20260506142027 | 17 | 192 | 27.4 | 30.6 | 0.00 | 0.00 | 0.00 | 76 | 1005.2 |
| 20260506141529 | 17 | 190 | 8.0 | 35.4 | 0.00 | 0.00 | 0.00 | 76 | 1005.2 |
| 20260506141027 | 17 | 200 | 11.3 | 35.4 | 0.00 | 0.00 | 0.00 | 76 | 1005.1 |
| 20260506140528 | 17 | 208 | 6.4 | 16.1 | 0.00 | 0.00 | 0.00 | 78 | 1005.1 |
| 20260506140144 | 17 | 195 | 6.4 | 14.5 | 0.00 | 0.00 | 0.00 | 78 | 1004.9 |
| 20260506135643 | 17 | 194 | 4.8 | 14.5 | 0.00 | 0.00 | 0.00 | 78 | 1005.0 |
| 20260506135027 | 17 | 159 | 0.0 | 17.7 | 0.00 | 0.00 | 0.00 | 78 | 1004.8 |
| 20260506134528 | 17 | 143 | 0.0 | 17.7 | 0.00 | 0.00 | 0.00 | 78 | 1004.8 |
| 20260506134027 | 17 | 167 | 8.0 | 14.5 | 0.00 | 0.00 | 0.00 | 78 | 1004.8 |
| 20260506133528 | 17 | 181 | 6.4 | 20.9 | 0.00 | 0.00 | 0.00 | 78 | 1004.7 |
| 20260506133028 | 17 | 152 | 11.3 | 20.9 | 0.00 | 0.00 | 0.00 | 78 | 1004.6 |
| 20260506132643 | 17 | 98 | 4.8 | 19.3 | 0.00 | 0.00 | 0.00 | 78 | 1004.6 |
| 20260506132142 | 17 | 206 | 3.2 | 19.3 | 0.00 | 0.00 | 0.00 | 79 | 1004.7 |
| 20260506131529 | 17 | 73 | 4.8 | 12.9 | 0.00 | 0.00 | 0.00 | 79 | 1004.8 |
| 20260506131027 | 17 | 140 | 0.0 | 14.5 | 0.00 | 0.00 | 0.00 | 79 | 1004.8 |
| 20260506130642 | 16 | 129 | 8.0 | 14.5 | 0.00 | 0.00 | 0.00 | 79 | 1004.8 |
| 20260506130259 | 16 | 214 | 8.0 | 14.5 | 0.00 | 0.00 | 0.00 | 80 | 1004.8 |
| 20260506125527 | 16 | 143 | 6.4 | 14.5 | 0.00 | 0.00 | 0.00 | 80 | 1005.1 |
| 20260506125142 | 16 | 127 | 3.2 | 11.3 | 0.00 | 0.00 | 0.00 | 80 | 1005.1 |
| 20260506124645 | 16 | 197 | 3.2 | 9.7 | 0.00 | 0.00 | 0.00 | 80 | 1005.2 |
| 20260506124142 | 16 | 184 | 1.6 | 14.5 | 0.00 | 0.00 | 0.00 | 80 | 1005.3 |
| 20260506123528 | 16 | 239 | 3.2 | 17.7 | 0.00 | 0.00 | 0.00 | 80 | 1005.5 |
| 20260506123027 | 16 | 241 | 3.2 | 17.7 | 0.00 | 0.00 | 0.00 | 80 | 1005.5 |
| 20260506122528 | 16 | 111 | 4.8 | 19.3 | 0.00 | 0.00 | 0.00 | 80 | 1005.5 |
| 20260506122027 | 16 | 186 | 11.3 | 22.5 | 0.00 | 0.00 | 0.00 | 80 | 1005.6 |
| 20260506121529 | 16 | 95 | 1.6 | 22.5 | 0.00 | 0.00 | 0.00 | 80 | 1005.5 |
| 20260506121029 | 16 | 179 | 9.7 | 17.7 | 0.00 | 0.00 | 0.00 | 80 | 1005.5 |
| 20260506120528 | 16 | 174 | 9.7 | 17.7 | 0.00 | 0.00 | 0.00 | 79 | 1005.5 |
| 20260506120029 | 16 | 154 | 1.6 | 16.1 | 0.00 | 0.00 | 0.00 | 79 | 1005.5 |
| 20260506115527 | 16 | 141 | 9.7 | 16.1 | 0.00 | 0.00 | 0.00 | 79 | 1005.4 |
| 20260506115142 | 16 | 254 | 6.4 | 20.9 | 0.00 | 0.00 | 0.00 | 79 | 1005.4 |
| 20260506114027 | 16 | 85 | 3.2 | 20.9 | 0.00 | 0.00 | 0.00 | 79 | 1005.2 |
| 20260506113643 | 16 | 187 | 3.2 | 25.7 | 0.00 | 0.00 | 0.00 | 79 | 1005.2 |
| 20260506113143 | 16 | 174 | 12.9 | 25.7 | 0.00 | 0.00 | 0.00 | 79 | 1005.2 |
| 20260506112528 | 15 | 229 | 8.0 | 17.7 | 0.00 | 0.00 | 0.00 | 79 | 1004.8 |
| 20260506112027 | 15 | 169 | 8.0 | 25.7 | 0.00 | 0.00 | 0.00 | 79 | 1004.9 |
| 20260506111529 | 15 | 111 | 17.7 | 25.7 | 0.00 | 0.00 | 0.00 | 79 | 1005.0 |
| 20260506111143 | 15 | 272 | 3.2 | 24.1 | 0.00 | 0.00 | 0.00 | 79 | 1005.2 |
| 20260506110528 | 15 | 27 | 6.4 | 24.1 | 0.00 | 0.00 | 0.00 | 79 | 1005.1 |
| 20260506110029 | 15 | 181 | 4.8 | 24.1 | 0.00 | 0.00 | 0.00 | 79 | 1005.3 |
| 20260506105758 | 15 | 359 | 6.4 | 29.0 | 0.00 | 0.00 | 0.00 | 79 | 1005.3 |
| 20260506105027 | 15 | 138 | 1.6 | 29.0 | 0.00 | 0.00 | 0.00 | 79 | 1005.2 |
| 20260506104528 | 15 | 151 | 11.3 | 22.5 | 0.00 | 0.00 | 0.00 | 80 | 1005.2 |
| 20260506104027 | 15 | 206 | 14.5 | 19.3 | 0.00 | 0.00 | 0.00 | 81 | 1005.3 |
| 20260506103528 | 14 | 93 | 3.2 | 17.7 | 0.00 | 0.00 | 0.00 | 83 | 1005.1 |
| 20260506103143 | 14 | 144 | 4.8 | 16.1 | 0.00 | 0.00 | 0.00 | 85 | 1005.2 |
| 20260506102757 | 13 | 191 | 11.3 | 17.7 | 0.00 | 0.00 | 0.00 | 86 | 1005.1 |
| 20260506102027 | 12 | 198 | 8.0 | 17.7 | 0.00 | 0.00 | 0.00 | 90 | 1005.1 |
| 20260506101530 | 12 | 179 | 6.4 | 16.1 | 0.00 | 0.00 | 0.00 | 94 | 1005.1 |
| 20260506101027 | 11 | 195 | 12.9 | 12.9 | 0.00 | 0.00 | 0.00 | 95 | 1005.1 |
| 20260506100527 | 11 | 218 | 1.6 | 6.4 | 0.00 | 0.00 | 0.00 | 96 | 1005.1 |
| 20260506100029 | 10 | 236 | 4.8 | 4.8 | 0.00 | 0.00 | 0.00 | 96 | 1005.0 |
| 20260506095642 | 10 | 236 | 0.0 | 6.4 | 0.00 | 0.00 | 0.00 | 95 | 1004.9 |
| 20260506095028 | 10 | 236 | 0.0 | 6.4 | 0.00 | 0.00 | 0.00 | 95 | 1004.9 |
| 20260506094528 | 10 | 297 | 0.0 | 0.0 | 0.00 | 0.00 | 0.00 | 95 | 1004.9 |
| 20260506094142 | 10 | 297 | 0.0 | 3.2 | 0.00 | 0.00 | 0.00 | 95 | 1004.8 |
| 20260506093642 | 10 | 297 | 0.0 | 3.2 | 0.00 | 0.00 | 0.00 | 95 | 1004.8 |
| 20260506093144 | 10 | 297 | 3.2 | 4.8 | 0.00 | 0.00 | 0.00 | 95 | 1004.9 |
| 20260506092530 | 10 | 297 | 0.0 | 4.8 | 0.00 | 0.00 | 0.00 | 95 | 1005.0 |
| 20260506092257 | 10 | 297 | 1.6 | 4.8 | 0.00 | 0.00 | 0.00 | 94 | 1004.9 |
| 20260506091529 | 11 | 297 | 1.6 | 6.4 | 0.00 | 0.00 | 0.00 | 95 | 1004.8 |
| 20260506091142 | 10 | 297 | 1.6 | 6.4 | 0.00 | 0.00 | 0.00 | 94 | 1004.9 |
| 20260506090528 | 11 | 299 | 0.0 | 6.4 | 0.00 | 0.00 | 0.00 | 94 | 1004.9 |
| 20260506090144 | 11 | 238 | 0.0 | 0.0 | 0.00 | 0.00 | 0.00 | 94 | 1004.9 |
| 20260506085527 | 11 | 238 | 0.0 | 0.0 | 0.00 | 0.00 | 0.00 | 94 | 1005.1 |
| 20260506085142 | 11 | 238 | 0.0 | 0.0 | 0.00 | 0.00 | 0.00 | 94 | 1005.2 |
| 20260506084529 | 11 | 238 | 0.0 | 0.0 | 0.00 | 0.00 | 0.00 | 94 | 1005.3 |
| 20260506084027 | 11 | 238 | 0.0 | 0.0 | 0.00 | 0.00 | 0.00 | 94 | 1005.1 |
| 20260506083527 | 11 | 238 | 0.0 | 0.0 | 0.00 | 0.00 | 0.00 | 94 | 1005.1 |
| 20260506083029 | 11 | 238 | 0.0 | 0.0 | 0.00 | 0.00 | 0.00 | 94 | 1005.1 |
| 20260506082529 | 11 | 238 | 0.0 | 0.0 | 0.00 | 0.00 | 0.00 | 94 | 1005.2 |
| 20260506082027 | 11 | 238 | 0.0 | 0.0 | 0.00 | 0.00 | 0.00 | 94 | 1005.3 |
| 20260506081645 | 11 | 238 | 0.0 | 0.0 | 0.00 | 0.00 | 0.00 | 94 | 1005.2 |
| 20260506081027 | 11 | 238 | 0.0 | 0.0 | 0.00 | 0.00 | 0.00 | 93 | 1005.5 |
| 20260506080528 | 12 | 238 | 0.0 | 0.0 | 0.00 | 0.00 | 0.00 | 94 | 1005.4 |
| 20260506080143 | 12 | 238 | 0.0 | 0.0 | 0.00 | 0.00 | 0.00 | 94 | 1005.5 |
| 20260506073029 | 12 | 238 | 0.0 | 3.2 | 0.00 | 0.00 | 0.00 | 93 | 1005.6 |
| 20260506072527 | 12 | 238 | 1.6 | 3.2 | 0.00 | 0.00 | 0.00 | 93 | 1005.8 |
| 20260506072027 | 12 | 238 | 1.6 | 3.2 | 0.00 | 0.00 | 0.00 | 93 | 1005.8 |
| 20260506071528 | 12 | 238 | 1.6 | 6.4 | 0.00 | 0.00 | 0.00 | 93 | 1005.9 |
| 20260506071027 | 12 | 238 | 1.6 | 6.4 | 0.00 | 0.00 | 0.00 | 93 | 1005.9 |
| 20260506070642 | 12 | 214 | 4.8 | 6.4 | 0.00 | 0.00 | 0.00 | 93 | 1006.0 |
| 20260506062028 | 13 | 170 | 0.0 | 0.0 | 0.00 | 0.00 | 0.00 | 92 | 1005.9 |
| 20260506061528 | 13 | 170 | 0.0 | 0.0 | 0.00 | 0.00 | 0.00 | 92 | 1005.9 |
| 20260506061027 | 13 | 170 | 0.0 | 0.0 | 0.00 | 0.00 | 0.00 | 92 | 1006.0 |
| 20260506060643 | 13 | 170 | 0.0 | 3.2 | 0.00 | 0.00 | 0.00 | 92 | 1005.9 |
| 20260506060145 | 13 | 170 | 0.0 | 3.2 | 0.00 | 0.00 | 0.00 | 92 | 1006.0 |
| 20260506051142 | 13 | 169 | 0.0 | 0.0 | 0.00 | 0.00 | 0.00 | 92 | 1006.2 |
| 20260506050528 | 13 | 169 | 0.0 | 6.4 | 0.00 | 0.00 | 0.00 | 92 | 1006.5 |
| 20260506045027 | 14 | 125 | 0.0 | 0.0 | 0.00 | 0.00 | 0.00 | 90 | 1006.4 |
| 20260506044528 | 14 | 125 | 0.0 | 3.2 | 0.00 | 0.00 | 0.00 | 90 | 1006.4 |
| 20260506044027 | 14 | 251 | 0.0 | 4.8 | 0.00 | 0.00 | 0.00 | 91 | 1006.4 |
| 20260506043527 | 14 | 251 | 1.6 | 4.8 | 0.00 | 0.00 | 0.00 | 91 | 1006.3 |
| 20260506043028 | 14 | 251 | 1.6 | 6.4 | 0.00 | 0.00 | 0.00 | 91 | 1006.2 |
| 20260506042527 | 14 | 251 | 3.2 | 6.4 | 0.00 | 0.00 | 0.00 | 91 | 1006.1 |
| 20260506042028 | 14 | 251 | 3.2 | 4.8 | 0.00 | 0.00 | 0.00 | 91 | 1006.1 |
| 20260506041643 | 14 | 251 | 3.2 | 4.8 | 0.00 | 0.00 | 0.00 | 91 | 1006.1 |
| 20260506041027 | 15 | 212 | 3.2 | 4.8 | 0.00 | 0.00 | 0.00 | 91 | 1006.1 |
| 20260506040527 | 15 | 212 | 0.0 | 6.4 | 0.00 | 0.00 | 0.00 | 91 | 1006.0 |
| 20260506040028 | 15 | 212 | 3.2 | 6.4 | 0.00 | 0.00 | 0.00 | 91 | 1006.1 |
| 20260506035528 | 15 | 160 | 0.0 | 3.2 | 0.00 | 0.03 | 0.03 | 90 | 1005.9 |
| 20260506035027 | 15 | 160 | 0.0 | 9.7 | 0.00 | 0.03 | 0.03 | 90 | 1006.0 |
| 20260506034530 | 15 | 135 | 1.6 | 9.7 | 0.00 | 0.03 | 0.03 | 90 | 1005.9 |
| 20260506034142 | 15 | 154 | 3.2 | 4.8 | 0.00 | 0.03 | 0.03 | 89 | 1005.9 |
| 20260506033528 | 15 | 286 | 3.2 | 4.8 | 0.00 | 0.03 | 0.03 | 90 | 1006.1 |
| 20260506033028 | 15 | 285 | 0.0 | 0.0 | 0.00 | 0.03 | 0.03 | 90 | 1006.0 |
| 20260506032528 | 15 | 285 | 0.0 | 0.0 | 0.00 | 0.03 | 0.03 | 89 | 1005.9 |
| 20260506032142 | 15 | 285 | 0.0 | 0.0 | 0.00 | 0.03 | 0.03 | 90 | 1005.8 |
| 20260506031644 | 15 | 285 | 0.0 | 0.0 | 0.00 | 0.03 | 0.03 | 90 | 1005.8 |
| 20260506031143 | 15 | 285 | 0.0 | 0.0 | 0.00 | 0.03 | 0.03 | 89 | 1005.8 |
| 20260506030527 | 15 | 319 | 0.0 | 0.0 | 0.00 | 0.03 | 0.03 | 89 | 1005.8 |
| 20260506030029 | 15 | 320 | 0.0 | 0.0 | 0.00 | 0.03 | 0.03 | 89 | 1005.7 |
| 20260506025643 | 15 | 316 | 0.0 | 1.6 | 0.00 | 0.03 | 0.03 | 89 | 1005.9 |
| 20260506025143 | 15 | 316 | 0.0 | 1.6 | 0.00 | 0.03 | 0.03 | 89 | 1006.0 |
| 20260506024528 | 15 | 315 | 0.0 | 4.8 | 0.00 | 0.03 | 0.03 | 89 | 1005.9 |
| 20260506024028 | 15 | 316 | 0.0 | 4.8 | 0.00 | 0.03 | 0.03 | 89 | 1005.9 |
| 20260506023527 | 15 | 316 | 3.2 | 8.0 | 0.00 | 0.03 | 0.03 | 89 | 1005.9 |
| 20260506023028 | 15 | 324 | 6.4 | 8.0 | 0.00 | 0.03 | 0.03 | 89 | 1006.0 |
| 20260506022642 | 15 | 255 | 3.2 | 4.8 | 0.00 | 0.03 | 0.03 | 89 | 1006.0 |
| 20260506022027 | 15 | 174 | 0.0 | 3.2 | 0.00 | 0.03 | 0.03 | 88 | 1006.1 |
| 20260506021529 | 15 | 298 | 0.0 | 0.0 | 0.00 | 0.03 | 0.03 | 88 | 1006.1 |
| 20260506021142 | 15 | 299 | 0.0 | 0.0 | 0.00 | 0.03 | 0.03 | 88 | 1006.2 |
| 20260506020527 | 15 | 299 | 0.0 | 1.6 | 0.00 | 0.03 | 0.03 | 87 | 1006.1 |
| 20260506020027 | 15 | 299 | 0.0 | 1.6 | 0.00 | 0.03 | 0.03 | 87 | 1006.1 |
| 20260506015527 | 15 | 299 | 1.6 | 6.4 | 0.00 | 0.03 | 0.03 | 87 | 1006.2 |
| 20260506015027 | 16 | 299 | 3.2 | 6.4 | 0.00 | 0.03 | 0.03 | 87 | 1006.1 |
| 20260506014528 | 16 | 108 | 0.0 | 0.0 | 0.00 | 0.03 | 0.03 | 86 | 1006.0 |
| 20260506014031 | 16 | 108 | 0.0 | 0.0 | 0.00 | 0.03 | 0.03 | 85 | 1005.9 |
| 20260506013643 | 16 | 108 | 0.0 | 9.7 | 0.00 | 0.03 | 0.03 | 83 | 1005.8 |
| 20260506013258 | 16 | 31 | 0.0 | 9.7 | 0.00 | 0.03 | 0.03 | 83 | 1005.8 |
| 20260506012642 | 16 | 4 | 8.0 | 8.0 | 0.00 | 0.03 | 0.03 | 84 | 1005.8 |
| 20260506012027 | 16 | 342 | 6.4 | 8.0 | 0.00 | 0.03 | 0.03 | 84 | 1005.9 |
| 20260506011529 | 16 | 252 | 4.8 | 6.4 | 0.00 | 0.03 | 0.03 | 84 | 1005.9 |
| 20260506011028 | 16 | 252 | 3.2 | 4.8 | 0.00 | 0.03 | 0.03 | 84 | 1005.6 |
| 20260506010528 | 16 | 252 | 1.6 | 4.8 | 0.00 | 0.03 | 0.03 | 84 | 1005.6 |
| 20260506010027 | 16 | 252 | 1.6 | 4.8 | 0.00 | 0.03 | 0.03 | 85 | 1005.5 |
| 20260506005528 | 16 | 252 | 3.2 | 4.8 | 0.00 | 0.03 | 0.03 | 84 | 1005.4 |
| 20260506005027 | 16 | 252 | 3.2 | 4.8 | 0.00 | 0.03 | 0.03 | 84 | 1005.4 |
| 20260506004529 | 16 | 210 | 0.0 | 4.8 | 0.00 | 0.03 | 0.03 | 83 | 1005.4 |
| 20260506004028 | 16 | 210 | 0.0 | 4.8 | 0.00 | 0.03 | 0.03 | 82 | 1005.3 |
| 20260506003527 | 17 | 210 | 1.6 | 4.8 | 0.00 | 0.03 | 0.03 | 81 | 1005.3 |
| 20260506003028 | 17 | 210 | 0.0 | 3.2 | 0.00 | 0.03 | 0.03 | 79 | 1005.2 |
| 20260506002643 | 17 | 210 | 0.0 | 3.2 | 0.00 | 0.03 | 0.03 | 79 | 1005.1 |
| 20260506002027 | 17 | 210 | 1.6 | 3.2 | 0.00 | 0.03 | 0.03 | 78 | 1005.0 |
| 20260506001644 | 17 | 210 | 0.0 | 3.2 | 0.00 | 0.03 | 0.03 | 77 | 1005.0 |
| 20260506001027 | 17 | 210 | 1.6 | 6.4 | 0.00 | 0.03 | 0.03 | 78 | 1004.9 |
| 20260506000528 | 17 | 210 | 0.0 | 6.4 | 0.00 | 0.03 | 0.03 | 77 | 1004.8 |
| 20260506000028 | 17 | 273 | 3.2 | 4.8 | 0.00 | 0.03 | 0.03 | 77 | 1004.8 |
| 20260505235528 | 17 | 21 | 1.6 | 3.2 | 0.00 | 0.03 | 0.03 | 77 | 1004.8 |
| 20260505235027 | 17 | 21 | 0.0 | 0.0 | 0.00 | 0.03 | 0.03 | 75 | 1004.8 |
| 20260505234644 | 17 | 21 | 0.0 | 0.0 | 0.00 | 0.03 | 0.03 | 76 | 1004.8 |
| 20260505234027 | 17 | 21 | 0.0 | 0.0 | 0.00 | 0.03 | 0.03 | 75 | 1005.0 |
| 20260505233527 | 17 | 21 | 0.0 | 1.6 | 0.00 | 0.03 | 0.03 | 74 | 1005.2 |
| 20260505233028 | 17 | 21 | 0.0 | 4.8 | 0.00 | 0.03 | 0.03 | 74 | 1005.0 |
| 20260505232527 | 17 | 21 | 0.0 | 4.8 | 0.00 | 0.03 | 0.03 | 73 | 1005.0 |
| 20260505232142 | 17 | 17 | 3.2 | 4.8 | 0.00 | 0.03 | 0.03 | 74 | 1005.0 |
| 20260505231529 | 18 | 15 | 0.0 | 6.4 | 0.00 | 0.03 | 0.03 | 73 | 1004.9 |
| 20260505231027 | 18 | 14 | 1.6 | 16.1 | 0.00 | 0.03 | 0.03 | 73 | 1004.7 |
| 20260505230643 | 18 | 108 | 0.0 | 16.1 | 0.00 | 0.03 | 0.03 | 72 | 1004.6 |
| 20260505230144 | 18 | 70 | 4.8 | 16.1 | 0.00 | 0.03 | 0.03 | 71 | 1005.0 |
| 20260505225527 | 18 | 74 | 16.1 | 16.1 | 0.00 | 0.03 | 0.03 | 69 | 1005.1 |
| 20260505225027 | 18 | 23 | 4.8 | 22.5 | 0.00 | 0.03 | 0.03 | 68 | 1005.1 |
| 20260505224529 | 18 | 314 | 6.4 | 22.5 | 0.00 | 0.03 | 0.03 | 69 | 1005.0 |
| 20260505224028 | 18 | 301 | 22.5 | 27.4 | 0.00 | 0.03 | 0.03 | 71 | 1004.8 |
| 20260505223527 | 18 | 306 | 22.5 | 30.6 | 0.00 | 0.03 | 0.03 | 72 | 1004.5 |
| 20260505223143 | 18 | 300 | 14.5 | 43.5 | 0.00 | 0.03 | 0.03 | 72 | 1004.3 |
| 20260505222757 | 18 | 316 | 17.7 | 51.5 | 0.00 | 0.03 | 0.03 | 70 | 1004.3 |
| 20260505222028 | 21 | 301 | 27.4 | 51.5 | 0.00 | 0.03 | 0.03 | 56 | 1004.1 |
| 20260505221528 | 24 | 282 | 38.6 | 40.2 | 0.00 | 0.03 | 0.03 | 41 | 1003.7 |
| 20260505221026 | 25 | 283 | 11.3 | 40.2 | 0.00 | 0.03 | 0.03 | 35 | 1003.1 |
| 20260505220643 | 25 | 234 | 17.7 | 38.6 | 0.00 | 0.03 | 0.03 | 35 | 1002.9 |
| 20260505220028 | 25 | 213 | 14.5 | 41.8 | 0.00 | 0.03 | 0.03 | 33 | 1002.5 |
| 20260505215528 | 25 | 214 | 16.1 | 41.8 | 0.00 | 0.03 | 0.03 | 34 | 1002.4 |
| 20260505215027 | 25 | 196 | 14.5 | 43.5 | 0.00 | 0.03 | 0.03 | 34 | 1002.3 |
| 20260505214529 | 25 | 280 | 19.3 | 43.5 | 0.00 | 0.03 | 0.03 | 33 | 1002.3 |
| 20260505214028 | 25 | 228 | 27.4 | 33.8 | 0.00 | 0.03 | 0.03 | 34 | 1002.3 |
| 20260505213527 | 25 | 216 | 6.4 | 45.1 | 0.00 | 0.03 | 0.03 | 35 | 1002.2 |
| 20260505213143 | 25 | 238 | 33.8 | 45.1 | 0.00 | 0.03 | 0.03 | 34 | 1002.2 |
| 20260505212757 | 25 | 190 | 14.5 | 33.8 | 0.00 | 0.03 | 0.03 | 34 | 1002.3 |
| 20260505212027 | 25 | 224 | 16.1 | 51.5 | 0.00 | 0.03 | 0.03 | 34 | 1002.2 |
| 20260505211644 | 25 | 193 | 14.5 | 51.5 | 0.00 | 0.03 | 0.03 | 34 | 1002.2 |
| 20260505211027 | 25 | 186 | 20.9 | 53.1 | 0.00 | 0.03 | 0.03 | 35 | 1002.2 |
| 20260505210527 | 25 | 173 | 12.9 | 53.1 | 0.00 | 0.03 | 0.03 | 34 | 1002.1 |
| 20260505210143 | 25 | 154 | 37.0 | 51.5 | 0.00 | 0.03 | 0.03 | 34 | 1001.9 |
| 20260505205528 | 26 | 201 | 19.3 | 48.3 | 0.00 | 0.03 | 0.03 | 34 | 1001.8 |
| 20260505205027 | 26 | 228 | 25.7 | 51.5 | 0.00 | 0.03 | 0.03 | 35 | 1001.7 |
| 20260505204530 | 26 | 208 | 41.8 | 56.3 | 0.00 | 0.03 | 0.03 | 34 | 1001.9 |
| 20260505204028 | 26 | 197 | 22.5 | 57.9 | 0.00 | 0.03 | 0.03 | 34 | 1001.9 |
| 20260505203527 | 26 | 193 | 16.1 | 45.1 | 0.00 | 0.03 | 0.03 | 35 | 1001.8 |
| 20260505203028 | 26 | 198 | 24.1 | 45.1 | 0.00 | 0.03 | 0.03 | 35 | 1002.2 |
| 20260505202528 | 26 | 230 | 19.3 | 35.4 | 0.00 | 0.03 | 0.03 | 36 | 1002.2 |